createdAt,value
2022-12-27T00:00:13.904Z,101346.96
2022-12-27T00:03:02.834Z,101352.47
2022-12-27T00:05:31.787Z,101357.02
2022-12-27T00:08:00.606Z,101354.69
2022-12-27T00:10:29.553Z,101353.88
2022-12-27T00:12:58.507Z,101350.55
2022-12-27T00:15:27.724Z,101352.77
2022-12-27T00:17:56.583Z,101348.77
2022-12-27T00:20:25.653Z,101339.42
2022-12-27T00:22:54.597Z,101338.53
2022-12-27T00:25:23.541Z,101335.99
2022-12-27T00:27:52.361Z,101335.05
2022-12-27T00:30:21.269Z,101328.82
2022-12-27T00:32:50.154Z,101327.36
2022-12-27T00:35:19.145Z,101328.73
2022-12-27T00:37:47.990Z,101329.56
2022-12-27T00:40:17.006Z,101329.47
2022-12-27T00:42:45.839Z,101329.67
2022-12-27T00:45:15.247Z,101332.25
2022-12-27T00:47:44.112Z,101334.64
2022-12-27T00:50:12.951Z,101332.88
2022-12-27T00:52:41.791Z,101328.75
2022-12-27T00:55:11.116Z,101316.45
2022-12-27T00:57:40.041Z,101319.27
2022-12-27T01:00:12.031Z,101313.40
2022-12-27T01:02:41.290Z,101315.95
2022-12-27T01:05:10.391Z,101318.62
2022-12-27T01:07:39.404Z,101316.59
2022-12-27T01:10:09.365Z,101312.91
2022-12-27T01:12:38.452Z,101308.67
2022-12-27T01:15:09.694Z,101302.88
2022-12-27T01:17:38.665Z,101305.98
2022-12-27T01:20:09.802Z,101305.10
2022-12-27T01:22:38.623Z,101305.01
2022-12-27T01:25:09.153Z,101301.34
2022-12-27T01:27:38.025Z,101302.89
2022-12-27T01:30:09.599Z,101296.00
2022-12-27T01:32:38.460Z,101294.85
2022-12-27T01:35:08.636Z,101284.92
2022-12-27T01:37:37.473Z,101282.01
2022-12-27T01:40:09.069Z,101279.41
2022-12-27T01:42:53.273Z,101277.52
2022-12-27T01:45:23.750Z,101279.73
2022-12-27T01:47:58.680Z,101273.16
2022-12-27T01:50:32.303Z,101264.07
2022-12-27T01:53:06.729Z,101265.89
2022-12-27T01:55:42.771Z,101263.83
2022-12-27T01:58:12.589Z,101261.99
2022-12-27T02:00:44.113Z,101258.91
2022-12-27T02:03:17.540Z,101263.55
2022-12-27T02:05:46.502Z,101266.42
2022-12-27T02:08:28.799Z,101264.16
2022-12-27T02:10:58.656Z,101265.25
2022-12-27T02:13:29.028Z,101272.29
2022-12-27T02:15:57.863Z,101268.25
2022-12-27T02:18:26.779Z,101269.38
2022-12-27T02:21:23.141Z,101272.71
2022-12-27T02:24:22.402Z,101270.08
2022-12-27T02:27:00.679Z,101264.14
2022-12-27T02:29:43.305Z,101258.67
2022-12-27T02:32:17.283Z,101259.66
2022-12-27T02:34:56.332Z,101263.66
2022-12-27T02:37:30.480Z,101261.64
2022-12-27T02:40:21.633Z,101256.23
2022-12-27T02:43:09.656Z,101255.23
2022-12-27T02:46:00.622Z,101250.17
2022-12-27T02:48:47.757Z,101242.64
2022-12-27T02:51:49.202Z,101252.09
2022-12-27T02:54:38.142Z,101254.26
2022-12-27T02:57:18.727Z,101250.11
2022-12-27T03:00:27.882Z,101240.67
2022-12-27T03:03:23.900Z,101243.35
2022-12-27T03:06:40.709Z,101242.42
2022-12-27T03:09:45.599Z,101239.21
2022-12-27T03:12:43.359Z,101238.34
2022-12-27T03:15:42.810Z,101232.48
2022-12-27T03:18:18.730Z,101237.23
2022-12-27T03:21:08.001Z,101231.60
2022-12-27T03:23:56.683Z,101226.75
2022-12-27T03:26:30.760Z,101226.73
2022-12-27T03:29:20.259Z,101225.71
2022-12-27T03:32:12.204Z,101225.92
2022-12-27T03:34:46.894Z,101229.85
2022-12-27T03:37:36.826Z,101226.71
2022-12-27T03:40:11.186Z,101228.71
2022-12-27T03:43:05.520Z,101227.52
2022-12-27T03:46:03.483Z,101230.96
2022-12-27T03:48:39.010Z,101228.73
2022-12-27T03:51:08.863Z,101229.31
2022-12-27T03:53:40.983Z,101234.70
2022-12-27T03:56:11.324Z,101234.48
2022-12-27T03:58:40.343Z,101231.64
2022-12-27T04:01:09.326Z,101236.43
2022-12-27T04:03:38.447Z,101238.16
2022-12-27T04:06:07.818Z,101247.51
2022-12-27T04:08:54.990Z,101237.08
2022-12-27T04:11:42.162Z,101237.80
2022-12-27T04:14:29.264Z,101237.18
2022-12-27T04:17:16.507Z,101240.38
2022-12-27T04:20:03.569Z,101238.77
2022-12-27T04:22:50.780Z,101227.50
2022-12-27T04:25:37.977Z,101229.91
2022-12-27T04:28:25.079Z,101231.19
2022-12-27T04:31:12.376Z,101233.45
2022-12-27T04:33:59.824Z,101248.52
2022-12-27T04:36:28.784Z,101242.80
2022-12-27T04:38:57.653Z,101231.92
2022-12-27T04:41:44.863Z,101227.89
2022-12-27T04:44:31.873Z,101221.52
2022-12-27T04:47:19.098Z,101220.87
2022-12-27T04:50:06.294Z,101226.14
2022-12-27T04:52:53.839Z,101217.73
2022-12-27T04:55:24.389Z,101218.62
2022-12-27T04:57:54.220Z,101223.31
2022-12-27T05:00:44.150Z,101233.41
2022-12-27T05:03:16.208Z,101224.54
2022-12-27T05:05:46.795Z,101212.45
2022-12-27T05:08:34.579Z,101217.51
2022-12-27T05:11:21.868Z,101226.31
2022-12-27T05:13:59.825Z,101223.48
2022-12-27T05:16:29.753Z,101222.79
2022-12-27T05:18:58.661Z,101220.75
2022-12-27T05:21:27.895Z,101219.17
2022-12-27T05:24:15.231Z,101220.62
2022-12-27T05:26:44.200Z,101220.03
2022-12-27T05:29:13.028Z,101212.05
2022-12-27T05:31:41.923Z,101209.60
2022-12-27T05:34:10.937Z,101210.12
2022-12-27T05:36:39.752Z,101216.04
2022-12-27T05:39:08.628Z,101215.05
2022-12-27T05:41:37.437Z,101210.23
2022-12-27T05:44:07.567Z,101211.69
2022-12-27T05:46:36.726Z,101210.54
2022-12-27T05:49:05.813Z,101215.63
2022-12-27T05:51:34.659Z,101219.13
2022-12-27T05:54:03.604Z,101214.54
2022-12-27T05:56:34.873Z,101217.59
2022-12-27T05:59:03.703Z,101214.25
2022-12-27T06:01:32.629Z,101206.37
2022-12-27T06:04:01.761Z,101206.14
2022-12-27T06:06:31.308Z,101205.23
2022-12-27T06:09:00.244Z,101206.73
2022-12-27T06:11:29.099Z,101205.14
2022-12-27T06:13:57.923Z,101206.63
2022-12-27T06:16:26.809Z,101208.13
2022-12-27T06:18:55.697Z,101208.13
2022-12-27T06:21:24.666Z,101211.52
2022-12-27T06:23:53.521Z,101215.64
2022-12-27T06:26:24.557Z,101212.53
2022-12-27T06:28:54.671Z,101203.90
2022-12-27T06:31:24.659Z,101201.94
2022-12-27T06:33:54.271Z,101204.15
2022-12-27T06:36:25.822Z,101209.55
2022-12-27T06:38:54.719Z,101210.82
2022-12-27T06:41:23.832Z,101205.04
2022-12-27T06:43:56.935Z,101198.84
2022-12-27T06:46:26.043Z,101204.57
2022-12-27T06:48:54.911Z,101211.40
2022-12-27T06:51:23.771Z,101215.68
2022-12-27T06:53:52.703Z,101217.02
2022-12-27T06:56:23.298Z,101213.94
2022-12-27T06:58:53.411Z,101210.05
2022-12-27T07:01:24.461Z,101209.14
2022-12-27T07:03:55.481Z,101209.76
2022-12-27T07:06:25.639Z,101203.13
2022-12-27T07:08:56.040Z,101197.27
2022-12-27T07:11:26.077Z,101195.09
2022-12-27T07:13:55.723Z,101195.20
2022-12-27T07:16:26.950Z,101192.66
2022-12-27T07:18:57.742Z,101196.32
2022-12-27T07:21:29.090Z,101198.64
2022-12-27T07:23:57.962Z,101200.97
2022-12-27T07:26:29.291Z,101202.80
2022-12-27T07:28:59.959Z,101201.86
2022-12-27T07:31:31.429Z,101202.94
2022-12-27T07:34:02.861Z,101208.73
2022-12-27T07:36:35.511Z,101210.25
2022-12-27T07:39:05.079Z,101205.38
2022-12-27T07:41:34.572Z,101212.62
2022-12-27T07:44:04.415Z,101215.42
2022-12-27T07:46:33.798Z,101211.52
2022-12-27T07:49:02.736Z,101214.36
2022-12-27T07:51:31.544Z,101210.22
2022-12-27T07:54:01.284Z,101212.31
2022-12-27T07:56:30.578Z,101203.90
2022-12-27T07:59:00.791Z,101204.21
2022-12-27T08:01:59.567Z,101198.88
2022-12-27T08:04:28.621Z,101200.78
2022-12-27T08:07:02.058Z,101194.55
2022-12-27T08:09:34.454Z,101187.45
2022-12-27T08:12:03.372Z,101185.58
2022-12-27T08:14:32.210Z,101188.64
2022-12-27T08:17:05.718Z,101192.67
2022-12-27T08:19:34.734Z,101191.62
2022-12-27T08:22:04.614Z,101192.47
2022-12-27T08:24:33.652Z,101189.10
2022-12-27T08:27:02.595Z,101185.48
2022-12-27T08:29:31.495Z,101186.02
2022-12-27T08:32:00.419Z,101181.73
2022-12-27T08:34:29.295Z,101177.87
2022-12-27T08:36:58.265Z,101178.55
2022-12-27T08:39:29.463Z,101169.46
2022-12-27T08:41:58.766Z,101174.27
2022-12-27T08:44:27.693Z,101170.64
2022-12-27T08:46:56.539Z,101166.73
2022-12-27T08:49:25.490Z,101156.98
2022-12-27T08:51:54.398Z,101157.16
2022-12-27T08:54:23.774Z,101148.05
2022-12-27T08:56:52.819Z,101143.27
2022-12-27T08:59:21.777Z,101135.91
2022-12-27T09:01:50.825Z,101132.84
2022-12-27T09:04:19.998Z,101126.86
2022-12-27T09:06:48.836Z,101119.45
2022-12-27T09:09:18.099Z,101115.56
2022-12-27T09:11:47.030Z,101114.45
2022-12-27T09:14:15.901Z,101109.34
2022-12-27T09:16:44.857Z,101114.67
2022-12-27T09:19:13.856Z,101101.03
2022-12-27T09:21:43.874Z,101088.10
2022-12-27T09:24:14.049Z,101081.23
2022-12-27T09:26:43.056Z,101082.05
2022-12-27T09:29:11.935Z,101079.61
2022-12-27T09:31:40.828Z,101088.37
2022-12-27T09:34:10.695Z,101087.09
2022-12-27T09:36:41.627Z,101081.51
2022-12-27T09:39:13.065Z,101077.28
2022-12-27T09:42:45.842Z,101071.23
2022-12-27T09:44:50.232Z,101055.20
2022-12-27T09:47:25.038Z,101052.30
2022-12-27T09:49:58.372Z,101045.03
2022-12-27T09:52:34.502Z,101042.54
2022-12-27T09:55:12.038Z,101037.51
2022-12-27T09:57:43.693Z,101034.70
2022-12-27T10:00:18.934Z,101023.47
2022-12-27T10:02:48.535Z,101030.00
2022-12-27T10:05:22.526Z,101023.98
2022-12-27T10:08:05.158Z,101033.52
2022-12-27T10:10:43.102Z,101028.00
2022-12-27T10:13:29.683Z,101022.11
2022-12-27T10:16:07.244Z,101020.63
2022-12-27T10:18:49.481Z,101012.61
2022-12-27T10:21:24.296Z,101006.86
2022-12-27T10:23:56.691Z,100997.45
2022-12-27T10:26:25.904Z,100996.46
2022-12-27T10:29:00.810Z,100997.05
2022-12-27T10:31:32.060Z,100993.34
2022-12-27T10:34:03.924Z,100986.94
2022-12-27T10:36:35.476Z,100979.64
2022-12-27T10:39:06.018Z,100979.06
2022-12-27T10:41:49.513Z,100980.52
2022-12-27T10:44:18.363Z,100975.02
2022-12-27T10:46:52.616Z,100981.27
2022-12-27T10:49:26.452Z,100979.41
2022-12-27T10:51:58.249Z,100975.21
2022-12-27T10:54:29.466Z,100967.45
2022-12-27T10:57:18.675Z,100967.73
2022-12-27T11:00:17.825Z,100975.00
2022-12-27T11:02:54.221Z,100988.02
2022-12-27T11:05:25.950Z,100996.74
2022-12-27T11:07:55.601Z,100992.94
2022-12-27T11:10:27.387Z,100994.09
2022-12-27T11:13:01.289Z,100994.17
2022-12-27T11:15:33.409Z,100991.04
2022-12-27T11:18:09.752Z,100990.59
2022-12-27T11:20:42.438Z,100984.20
2022-12-27T11:23:15.934Z,100985.90
2022-12-27T11:25:53.717Z,100979.63
2022-12-27T11:28:29.901Z,100975.63
2022-12-27T11:31:01.196Z,100970.91
2022-12-27T11:33:38.629Z,100989.36
2022-12-27T11:36:11.259Z,100982.86
2022-12-27T11:38:44.170Z,100974.17
2022-12-27T11:41:24.585Z,100986.47
2022-12-27T11:44:01.706Z,100987.23
2022-12-27T11:46:40.140Z,100991.42
2022-12-27T11:49:16.753Z,100993.46
2022-12-27T11:52:16.593Z,100999.52
2022-12-27T11:55:03.699Z,101005.13
2022-12-27T11:57:54.385Z,101009.14
2022-12-27T12:00:31.341Z,101006.78
2022-12-27T12:03:31.371Z,101008.02
2022-12-27T12:06:12.160Z,101012.05
2022-12-27T12:09:09.378Z,101007.40
2022-12-27T12:11:56.708Z,101009.10
2022-12-27T12:14:56.462Z,101011.04
2022-12-27T12:17:49.666Z,101013.84
2022-12-27T12:23:34.874Z,101017.09
2022-12-27T12:26:18.043Z,101020.85
2022-12-27T12:29:21.658Z,101025.66
2022-12-27T12:32:33.750Z,101028.10
2022-12-27T12:35:26.485Z,101032.81
2022-12-27T12:38:06.146Z,101037.66
2022-12-27T12:40:57.975Z,101027.54
2022-12-27T12:43:57.278Z,101041.41
2022-12-27T12:46:38.126Z,101040.27
2022-12-27T12:49:30.814Z,101039.42
2022-12-27T12:52:25.633Z,101042.97
2022-12-27T12:55:40.330Z,101039.53
2022-12-27T12:58:24.311Z,101044.58
2022-12-27T13:01:20.067Z,101040.41
2022-12-27T13:04:43.343Z,101040.87
2022-12-27T13:07:42.951Z,101053.50
2022-12-27T13:10:40.259Z,101067.77
2022-12-27T13:13:20.195Z,101062.85
2022-12-27T13:16:13.694Z,101061.77
2022-12-27T13:18:57.367Z,101075.00
2022-12-27T13:21:46.641Z,101076.29
2022-12-27T13:24:30.135Z,101077.11
2022-12-27T13:27:11.247Z,101076.13
2022-12-27T13:30:05.988Z,101082.27
2022-12-27T13:32:49.794Z,101089.04
2022-12-27T13:35:36.940Z,101088.55
2022-12-27T13:38:25.001Z,101096.16
2022-12-27T13:41:30.742Z,101094.69
2022-12-27T13:44:32.119Z,101090.23
2022-12-27T13:47:25.854Z,101091.91
2022-12-27T13:50:16.360Z,101097.25
2022-12-27T13:53:03.298Z,101093.16
2022-12-27T13:55:43.601Z,101098.94
2022-12-27T13:58:46.990Z,101106.92
2022-12-27T14:01:44.240Z,101109.57
2022-12-27T14:04:39.973Z,101110.19
2022-12-27T14:07:28.729Z,101112.30
2022-12-27T14:10:27.301Z,101109.61
2022-12-27T14:13:03.059Z,101117.71
2022-12-27T14:15:59.939Z,101120.92
2022-12-27T14:18:54.828Z,101122.52
2022-12-27T14:21:52.222Z,101119.67
2022-12-27T14:24:51.738Z,101117.55
2022-12-27T14:28:26.661Z,101123.27
2022-12-27T14:31:31.809Z,101125.09
2022-12-27T14:34:37.929Z,101127.61
2022-12-27T14:37:48.531Z,101128.75
2022-12-27T14:40:53.527Z,101134.43
2022-12-27T14:43:55.800Z,101138.54
2022-12-27T14:46:50.354Z,101144.48
2022-12-27T14:49:51.180Z,101151.05
2022-12-27T14:52:52.631Z,101152.83
2022-12-27T14:55:41.640Z,101158.64
2022-12-27T14:58:28.858Z,101161.17
2022-12-27T15:01:14.201Z,101164.97
2022-12-27T15:04:08.946Z,101170.16
2022-12-27T15:07:17.367Z,101175.02
2022-12-27T15:09:58.841Z,101173.85
2022-12-27T15:12:41.245Z,101174.40
2022-12-27T15:15:28.994Z,101176.05
2022-12-27T15:18:31.491Z,101184.20
2022-12-27T15:21:41.288Z,101185.57
2022-12-27T15:24:26.695Z,101184.30
2022-12-27T15:27:08.584Z,101189.89
2022-12-27T15:29:52.623Z,101194.73
2022-12-27T15:32:34.041Z,101200.53
2022-12-27T15:35:35.064Z,101210.46
2022-12-27T15:38:13.209Z,101216.18
2022-12-27T15:41:15.892Z,101227.46
2022-12-27T15:44:21.502Z,101225.52
2022-12-27T15:47:24.234Z,101223.77
2022-12-27T15:50:33.950Z,101221.78
2022-12-27T15:53:33.754Z,101226.64
2022-12-27T15:56:30.700Z,101224.61
2022-12-27T15:59:41.432Z,101224.14
2022-12-27T16:02:51.266Z,101224.14
2022-12-27T16:05:47.485Z,101233.17
2022-12-27T16:08:29.174Z,101233.60
2022-12-27T16:11:02.956Z,101236.13
2022-12-27T16:13:48.435Z,101239.63
2022-12-27T16:16:57.139Z,101245.59
2022-12-27T16:19:47.558Z,101244.20
2022-12-27T16:22:32.126Z,101249.33
2022-12-27T16:25:25.510Z,101249.18
2022-12-27T16:28:11.130Z,101252.51
2022-12-27T16:30:47.812Z,101254.40
2022-12-27T16:33:35.421Z,101254.52
2022-12-27T16:36:23.314Z,101262.73
2022-12-27T16:39:26.213Z,101255.98
2022-12-27T16:42:07.667Z,101258.21
2022-12-27T16:45:05.613Z,101267.05
2022-12-27T16:47:57.573Z,101270.71
2022-12-27T16:50:55.737Z,101277.04
2022-12-27T16:53:46.245Z,101283.73
2022-12-27T16:56:25.306Z,101287.67
2022-12-27T16:58:58.074Z,101284.52
2022-12-27T17:02:01.614Z,101279.26
2022-12-27T17:05:00.550Z,101282.93
2022-12-27T17:08:11.404Z,101283.16
2022-12-27T17:10:58.676Z,101288.51
2022-12-27T17:13:47.872Z,101289.25
2022-12-27T17:16:23.905Z,101299.92
2022-12-27T17:19:00.956Z,101309.48
2022-12-27T17:21:35.395Z,101317.20
2022-12-27T17:24:12.142Z,101321.60
2022-12-27T17:27:14.783Z,101324.80
2022-12-27T17:30:14.579Z,101329.95
2022-12-27T17:33:14.030Z,101343.27
2022-12-27T17:36:10.230Z,101350.66
2022-12-27T17:38:55.792Z,101353.44
2022-12-27T17:41:59.510Z,101350.73
2022-12-27T17:44:45.017Z,101348.56
2022-12-27T17:47:38.365Z,101353.17
2022-12-27T17:50:18.961Z,101355.38
2022-12-27T17:53:36.522Z,101356.73
2022-12-27T17:56:45.447Z,101360.30
2022-12-27T17:59:27.153Z,101364.45
2022-12-27T18:02:05.564Z,101364.70
2022-12-27T18:04:43.574Z,101364.06
2022-12-27T18:07:23.403Z,101367.05
2022-12-27T18:09:58.914Z,101368.50
2022-12-27T18:12:35.846Z,101370.61
2022-12-27T18:15:13.931Z,101370.36
2022-12-27T18:17:49.699Z,101368.83
2022-12-27T18:20:31.025Z,101366.11
2022-12-27T18:23:17.896Z,101366.60
2022-12-27T18:25:56.517Z,101368.93
2022-12-27T18:28:33.379Z,101374.27
2022-12-27T18:31:15.739Z,101379.28
2022-12-27T18:33:52.590Z,101382.21
2022-12-27T18:36:30.562Z,101384.65
2022-12-27T18:39:07.385Z,101388.80
2022-12-27T18:41:44.953Z,101391.63
2022-12-27T18:44:26.465Z,101401.52
2022-12-27T18:47:01.961Z,101409.85
2022-12-27T18:49:37.322Z,101411.86
2022-12-27T18:52:16.693Z,101414.34
2022-12-27T18:54:49.171Z,101421.07
2022-12-27T18:57:33.476Z,101422.65
2022-12-27T19:00:17.226Z,101427.39
2022-12-27T19:02:50.255Z,101435.32
2022-12-27T19:05:31.391Z,101437.00
2022-12-27T19:08:12.365Z,101432.67
2022-12-27T19:10:51.701Z,101441.65
2022-12-27T19:13:29.075Z,101449.40
2022-12-27T19:16:02.191Z,101465.08
2022-12-27T19:18:38.584Z,101465.86
2022-12-27T19:21:16.360Z,101464.04
2022-12-27T19:23:50.197Z,101469.98
2022-12-27T19:26:33.193Z,101479.76
2022-12-27T19:29:14.797Z,101483.38
2022-12-27T19:31:54.740Z,101485.02
2022-12-27T19:34:30.152Z,101485.60
2022-12-27T19:37:02.346Z,101492.10
2022-12-27T19:39:40.322Z,101495.56
2022-12-27T19:42:16.163Z,101490.76
2022-12-27T19:44:48.569Z,101489.91
2022-12-27T19:47:20.763Z,101484.34
2022-12-27T19:49:52.931Z,101492.43
2022-12-27T19:52:27.696Z,101496.75
2022-12-27T19:55:05.871Z,101497.20
2022-12-27T19:57:40.266Z,101501.83
2022-12-27T20:00:20.458Z,101506.43
2022-12-27T20:02:52.710Z,101509.54
2022-12-27T20:06:11.796Z,101508.45
2022-12-27T20:08:29.148Z,101511.34
2022-12-27T20:11:03.051Z,101509.26
2022-12-27T20:13:35.360Z,101512.01
2022-12-27T20:16:09.316Z,101513.06
2022-12-27T20:18:44.290Z,101499.42
2022-12-27T20:21:19.711Z,101516.27
2022-12-27T20:23:52.501Z,101517.52
2022-12-27T20:26:26.532Z,101527.52
2022-12-27T20:29:00.026Z,101535.50
2022-12-27T20:31:32.489Z,101536.64
2022-12-27T20:34:05.185Z,101539.83
2022-12-27T20:36:37.385Z,101545.66
2022-12-27T20:39:09.871Z,101558.07
2022-12-27T20:41:42.198Z,101559.17
2022-12-27T20:44:15.895Z,101558.70
2022-12-27T20:46:48.663Z,101569.71
2022-12-27T20:49:20.865Z,101573.95
2022-12-27T20:51:53.063Z,101581.44
2022-12-27T20:54:25.917Z,101578.11
2022-12-27T20:56:58.173Z,101584.45
2022-12-27T20:59:30.534Z,101584.23
2022-12-27T21:02:02.935Z,101582.23
2022-12-27T21:04:35.436Z,101586.73
2022-12-27T21:07:08.617Z,101583.77
2022-12-27T21:09:40.825Z,101592.01
2022-12-27T21:12:13.150Z,101596.05
2022-12-27T21:14:45.436Z,101600.71
2022-12-27T21:17:17.821Z,101610.15
2022-12-27T21:19:50.080Z,101622.15
2022-12-27T21:22:22.404Z,101622.83
2022-12-27T21:24:54.685Z,101621.99
2022-12-27T21:27:26.821Z,101623.23
2022-12-27T21:29:59.100Z,101626.84
2022-12-27T21:32:31.348Z,101629.42
2022-12-27T21:35:03.700Z,101633.84
2022-12-27T21:37:35.928Z,101634.89
2022-12-27T21:40:10.541Z,101633.85
2022-12-27T21:42:42.730Z,101631.17
2022-12-27T21:45:15.180Z,101631.68
2022-12-27T21:47:47.370Z,101631.71
2022-12-27T21:50:19.707Z,101630.05
2022-12-27T21:52:51.871Z,101635.63
2022-12-27T21:55:24.073Z,101641.17
2022-12-27T21:57:56.264Z,101648.51
2022-12-27T22:00:28.558Z,101657.37
2022-12-27T22:03:00.868Z,101666.24
2022-12-27T22:05:33.512Z,101672.55
2022-12-27T22:08:05.970Z,101672.58
2022-12-27T22:10:38.221Z,101677.55
2022-12-27T22:13:12.082Z,101684.96
2022-12-27T22:15:44.352Z,101691.30
2022-12-27T22:18:16.588Z,101698.77
2022-12-27T22:20:48.754Z,101690.79
2022-12-27T22:23:21.542Z,101686.30
2022-12-27T22:25:53.947Z,101692.30
2022-12-27T22:28:26.531Z,101694.75
2022-12-27T22:30:59.211Z,101707.98
2022-12-27T22:33:31.580Z,101720.61
2022-12-27T22:36:08.151Z,101728.83
2022-12-27T22:38:40.923Z,101734.27
2022-12-27T22:41:15.648Z,101750.10
2022-12-27T22:43:53.372Z,101753.73
2022-12-27T22:46:28.444Z,101762.85
2022-12-27T22:49:02.756Z,101770.95
2022-12-27T22:51:37.264Z,101775.83
2022-12-27T22:54:10.177Z,101776.98
2022-12-27T22:56:43.938Z,101774.86
2022-12-27T22:59:17.425Z,101770.85
2022-12-27T23:01:49.763Z,101775.02
2022-12-27T23:04:22.200Z,101776.99
2022-12-27T23:06:54.469Z,101785.26
2022-12-27T23:09:26.625Z,101790.98
2022-12-27T23:11:58.793Z,101793.93
2022-12-27T23:14:31.055Z,101795.71
2022-12-27T23:17:03.326Z,101795.64
2022-12-27T23:19:35.673Z,101799.56
2022-12-27T23:22:08.463Z,101811.62
2022-12-27T23:24:40.830Z,101822.01
2022-12-27T23:27:13.041Z,101825.61
2022-12-27T23:29:45.324Z,101836.58
2022-12-27T23:32:17.587Z,101837.17
2022-12-27T23:34:52.627Z,101836.64
2022-12-27T23:37:24.806Z,101822.88
2022-12-27T23:39:56.986Z,101816.11
2022-12-27T23:42:29.364Z,101818.34
2022-12-27T23:45:01.613Z,101821.27
2022-12-27T23:47:33.820Z,101823.40
2022-12-27T23:50:07.026Z,101829.14
2022-12-27T23:52:39.195Z,101847.89
2022-12-27T23:55:12.417Z,101850.41
2022-12-27T23:57:44.743Z,101849.17
